Time;durP1;ratioP1;P1;durP2;ratioP2;P2;SDS_P1;SDS_P2;PMS_P1;PMS_P2;Temp;Humidity;BMP_temperature;BMP_pressure;BME280_temperature;BME280_humidity;BME280_pressure;Samples;Min_cycle;Max_cycle;Signal;HPM_P1;HPM_P2
2023/08/26 00:01:48;;;;;;;7.30;5.50;;;;;;;20.02;99.63;95198.06;5031803;28;20262;-81
2023/08/26 00:04:13;;;;;;;8.60;6.25;;;;;;;20.07;99.11;95185.06;5017975;28;20203;-82
2023/08/26 00:06:39;;;;;;;8.27;5.95;;;;;;;20.00;100.00;95183.50;4998710;28;20986;-81
2023/08/26 00:09:04;;;;;;;6.68;5.97;;;;;;;20.03;100.00;95183.03;4997380;28;20775;-82
2023/08/26 00:11:29;;;;;;;7.53;5.97;;;;;;;20.05;99.51;95184.47;5017042;28;20287;-81
2023/08/26 00:13:55;;;;;;;6.80;6.10;;;;;;;20.04;99.96;95182.81;5010304;28;20225;-81
2023/08/26 00:16:20;;;;;;;8.15;5.97;;;;;;;19.84;100.00;95189.28;5021210;28;20183;-81
2023/08/26 00:18:47;;;;;;;6.85;6.13;;;;;;;19.69;100.00;95176.41;5016149;28;20305;-81
2023/08/26 00:21:14;;;;;;;8.98;5.13;;;;;;;19.74;100.00;95179.22;4999844;28;20189;-81
2023/08/26 00:23:39;;;;;;;6.72;5.15;;;;;;;19.79;100.00;95188.09;5014322;28;20194;-82
2023/08/26 00:26:05;;;;;;;8.85;5.75;;;;;;;19.91;100.00;95185.59;5014379;28;20230;-81
2023/08/26 00:28:30;;;;;;;6.30;5.65;;;;;;;19.89;100.00;95173.66;4998573;28;20219;-82
2023/08/26 00:30:59;;;;;;;6.30;5.68;;;;;;;20.01;100.00;95185.91;5014532;28;20201;-82
2023/08/26 00:33:26;;;;;;;8.63;5.95;;;;;;;20.07;100.00;95205.34;5003600;28;20179;-81
2023/08/26 00:35:51;;;;;;;9.05;6.35;;;;;;;19.93;100.00;95188.81;5002745;28;20660;-80
2023/08/26 00:38:16;;;;;;;7.07;5.22;;;;;;;19.98;100.00;95181.06;5013846;28;20215;-79
2023/08/26 00:40:42;;;;;;;10.50;5.80;;;;;;;19.79;100.00;95198.66;5031489;28;20342;-82
2023/08/26 00:43:10;;;;;;;9.80;5.20;;;;;;;19.79;100.00;95200.47;5032173;28;20195;-82
2023/08/26 00:45:41;;;;;;;5.95;4.65;;;;;;;19.83;100.00;95198.22;5016322;28;21138;-81
2023/08/26 00:48:08;;;;;;;4.28;3.85;;;;;;;19.82;100.00;95213.22;5015301;28;20250;-81
2023/08/26 00:50:34;;;;;;;4.75;3.92;;;;;;;19.64;100.00;95215.75;5014353;28;20211;-81
2023/08/26 00:53:00;;;;;;;4.35;3.25;;;;;;;19.78;100.00;95212.00;5014212;28;20244;-81
2023/08/26 00:55:26;;;;;;;4.25;3.40;;;;;;;19.83;100.00;95214.81;5014301;28;20222;-81
2023/08/26 00:57:52;;;;;;;4.15;3.75;;;;;;;19.79;100.00;95209.19;5014147;28;20218;-81
2023/08/26 01:00:17;;;;;;;4.80;3.58;;;;;;;19.82;100.00;95207.94;4997637;28;20191;-81
2023/08/26 01:02:42;;;;;;;5.95;3.55;;;;;;;19.90;100.00;95210.31;4997935;28;20197;-81
2023/08/26 01:05:08;;;;;;;7.70;4.40;;;;;;;19.88;100.00;95215.00;5013827;28;20197;-82
2023/08/26 01:07:33;;;;;;;7.30;4.80;;;;;;;19.87;100.00;95209.91;5014934;28;20218;-81
2023/08/26 01:09:59;;;;;;;4.95;4.45;;;;;;;19.95;100.00;95222.84;5013968;28;20206;-82
2023/08/26 01:12:49;;;;;;;6.80;4.55;;;;;;;19.79;100.00;95216.28;4997263;28;20187;-81
2023/08/26 01:15:15;;;;;;;6.00;5.15;;;;;;;19.90;99.83;95194.50;5013062;28;20264;-81
2023/08/26 01:17:40;;;;;;;5.47;4.97;;;;;;;19.91;99.40;95204.03;4997048;28;20925;-81
2023/08/26 01:20:07;;;;;;;9.02;5.38;;;;;;;19.94;99.18;95200.16;5022149;28;20175;-80
2023/08/26 01:22:34;;;;;;;10.25;5.53;;;;;;;19.90;99.75;95210.31;5036472;28;20235;-79
2023/08/26 01:24:59;;;;;;;11.73;6.45;;;;;;;19.75;100.00;95199.28;4996141;28;20661;-81
2023/08/26 01:27:25;;;;;;;8.65;5.80;;;;;;;19.89;99.92;95203.44;5011373;28;20202;-82
2023/08/26 01:29:50;;;;;;;8.65;5.55;;;;;;;19.85;99.97;95212.78;5028500;28;20302;-82
2023/08/26 01:32:39;;;;;;;9.60;6.10;;;;;;;19.87;99.85;95216.00;4995425;28;20190;-82
2023/08/26 01:35:08;;;;;;;7.63;5.65;;;;;;;19.66;100.00;95216.34;5010196;28;20182;-82
2023/08/26 01:37:34;;;;;;;9.20;6.00;;;;;;;19.71;99.89;95219.16;5011815;28;20207;-82
2023/08/26 01:40:00;;;;;;;10.30;5.78;;;;;;;19.59;100.00;95218.19;5011697;28;20175;-82
2023/08/26 01:42:26;;;;;;;11.48;6.47;;;;;;;19.57;100.00;95217.63;5012291;28;20191;-82
2023/08/26 01:44:51;;;;;;;8.77;6.63;;;;;;;19.59;100.00;95216.38;5011328;28;20213;-82
2023/08/26 01:47:17;;;;;;;9.68;6.60;;;;;;;19.48;100.00;95222.28;4994822;28;20211;-80
2023/08/26 01:49:45;;;;;;;11.48;7.07;;;;;;;19.51;100.00;95224.50;5010820;28;20230;-81
2023/08/26 01:52:10;;;;;;;11.45;7.57;;;;;;;19.46;100.00;95211.97;5011358;28;20191;-81
2023/08/26 01:54:35;;;;;;;9.73;6.65;;;;;;;19.31;100.00;95229.84;5001410;28;20246;-82
2023/08/26 01:57:01;;;;;;;9.25;6.30;;;;;;;19.29;100.00;95239.00;5010426;28;20229;-82
2023/08/26 01:59:26;;;;;;;9.05;6.38;;;;;;;19.33;100.00;95246.25;4995211;28;20233;-81
2023/08/26 02:01:51;;;;;;;13.05;7.15;;;;;;;19.36;100.00;95248.47;4994554;28;20670;-82
2023/08/26 02:04:17;;;;;;;8.70;6.88;;;;;;;19.15;100.00;95243.47;5011051;28;20788;-81
2023/08/26 02:06:42;;;;;;;10.25;6.30;;;;;;;19.29;100.00;95239.00;4993753;28;20684;-81
2023/08/26 02:09:08;;;;;;;11.02;7.07;;;;;;;19.36;100.00;95251.13;4994189;28;20211;-81
2023/08/26 02:11:33;;;;;;;11.25;6.63;;;;;;;19.14;100.00;95247.13;5010872;28;20198;-82
2023/08/26 02:13:58;;;;;;;8.70;6.28;;;;;;;19.30;100.00;95240.59;5010570;28;20192;-82
2023/08/26 02:16:24;;;;;;;9.93;6.43;;;;;;;19.41;100.00;95246.00;4993688;28;20218;-83
2023/08/26 02:18:49;;;;;;;10.80;6.95;;;;;;;19.34;100.00;95254.94;5028930;28;20361;-81
2023/08/26 02:21:17;;;;;;;7.68;5.93;;;;;;;19.35;100.00;95249.50;5014479;28;20183;-83
2023/08/26 02:23:42;;;;;;;8.98;5.95;;;;;;;19.33;98.90;95246.25;4997575;28;20668;-84
2023/08/26 02:26:07;;;;;;;9.05;5.60;;;;;;;19.33;98.72;95248.06;5015213;28;20249;-82
2023/08/26 02:28:33;;;;;;;7.65;5.28;;;;;;;19.23;97.58;95256.41;5014582;28;20243;-83
2023/08/26 02:31:00;;;;;;;10.10;5.82;;;;;;;19.06;97.70;95255.25;5014474;28;20218;-82
2023/08/26 02:33:27;;;;;;;8.30;5.32;;;;;;;19.11;96.54;95258.09;5012618;28;20190;-82
2023/08/26 02:35:52;;;;;;;11.90;6.38;;;;;;;19.19;95.71;95252.59;5014136;28;20183;-81
2023/08/26 02:38:17;;;;;;;10.05;5.20;;;;;;;19.25;95.09;95257.00;4997462;28;20642;-83
2023/08/26 02:40:51;;;;;;;9.38;5.22;;;;;;;19.04;94.58;95266.00;5014321;28;20183;-82
2023/08/26 02:43:16;;;;;;;7.28;5.43;;;;;;;18.92;95.62;95262.41;5013959;28;20692;-82
2023/08/26 02:45:44;;;;;;;9.63;5.53;;;;;;;19.07;95.35;95262.13;5013776;28;20196;-82
2023/08/26 02:48:09;;;;;;;9.52;5.43;;;;;;;18.92;96.11;95255.31;4996497;28;20214;-82
2023/08/26 02:50:37;;;;;;;8.32;5.40;;;;;;;19.09;95.26;95252.22;5013818;28;20571;-81
2023/08/26 02:53:03;;;;;;;8.23;5.32;;;;;;;18.88;96.49;95259.34;4997713;28;20186;-82
2023/08/26 02:55:28;;;;;;;7.22;5.07;;;;;;;19.00;95.70;95256.91;5013448;28;20195;-82
2023/08/26 02:57:54;;;;;;;7.82;5.78;;;;;;;19.09;94.38;95258.31;4996659;28;20203;-81
2023/08/26 03:00:19;;;;;;;7.70;5.05;;;;;;;19.02;94.81;95256.69;4997568;28;20215;-80
2023/08/26 03:02:44;;;;;;;10.38;5.93;;;;;;;18.99;94.54;95265.78;5013856;28;20179;-82
2023/08/26 03:05:10;;;;;;;8.93;5.32;;;;;;;18.92;93.65;95250.03;5012870;28;20633;-81
2023/08/26 03:07:35;;;;;;;8.13;5.45;;;;;;;18.89;94.04;95239.09;4996291;28;20202;-81
2023/08/26 03:10:01;;;;;;;9.23;5.28;;;;;;;18.95;93.26;95246.19;5013291;28;20214;-82
2023/08/26 03:12:26;;;;;;;5.80;4.95;;;;;;;18.99;92.53;95244.75;5013275;28;20195;-82
2023/08/26 03:14:52;;;;;;;9.07;4.97;;;;;;;18.88;93.00;95253.28;5013059;28;20187;-82
2023/08/26 03:17:18;;;;;;;8.40;5.43;;;;;;;18.85;92.70;95243.19;4995997;28;20665;-81
2023/08/26 03:19:43;;;;;;;6.65;5.65;;;;;;;18.73;94.19;95250.91;5014735;28;20191;-82
2023/08/26 03:22:08;;;;;;;9.07;5.53;;;;;;;18.81;94.20;95258.53;4996435;28;20246;-81
2023/08/26 03:24:36;;;;;;;7.47;5.85;;;;;;;18.85;93.74;95262.41;4996549;28;20221;-81
2023/08/26 03:27:01;;;;;;;12.38;6.03;;;;;;;18.74;94.22;95260.41;5010826;28;20278;-81
2023/08/26 03:29:26;;;;;;;9.13;5.85;;;;;;;18.79;93.08;95257.16;5029310;28;20306;-81
2023/08/26 03:31:52;;;;;;;10.50;5.68;;;;;;;18.64;92.98;95259.97;5012847;28;20195;-82
2023/08/26 03:34:18;;;;;;;8.40;6.10;;;;;;;18.63;93.09;95259.16;5012730;28;20193;-81
2023/08/26 03:36:43;;;;;;;13.52;5.57;;;;;;;18.66;92.72;95264.06;4996156;28;20179;-82
2023/08/26 03:39:08;;;;;;;13.40;5.70;;;;;;;18.62;93.02;95264.63;4995781;28;20268;-82
2023/08/26 03:41:34;;;;;;;8.32;5.50;;;;;;;18.58;92.68;95272.13;5014449;28;20559;-81
2023/08/26 03:43:59;;;;;;;8.70;5.65;;;;;;;18.53;93.48;95271.91;4995965;28;20187;-81
2023/08/26 03:46:26;;;;;;;10.38;5.65;;;;;;;18.52;93.46;95270.28;5011735;28;20179;-82
2023/08/26 03:48:51;;;;;;;9.27;5.65;;;;;;;18.50;93.93;95274.97;5012401;28;20276;-81
2023/08/26 03:51:17;;;;;;;8.77;6.07;;;;;;;18.49;94.39;95278.59;5012237;28;20653;-81
2023/08/26 03:53:42;;;;;;;8.20;5.97;;;;;;;18.38;94.88;95279.22;5012172;28;20183;-82
2023/08/26 03:56:07;;;;;;;12.02;6.25;;;;;;;18.40;94.87;95282.44;4994975;28;20540;-82
2023/08/26 03:58:33;;;;;;;9.43;6.43;;;;;;;18.22;95.68;95284.88;5012316;28;20207;-83
2023/08/26 04:01:02;;;;;;;11.23;5.97;;;;;;;18.24;95.71;95293.34;5011842;28;20321;-81
2023/08/26 04:03:27;;;;;;;8.02;6.03;;;;;;;18.30;95.35;95305.69;5009188;28;20205;-82
2023/08/26 04:06:04;;;;;;;12.80;6.20;;;;;;;18.23;94.90;95297.81;4998093;28;20183;-81
2023/08/26 04:08:33;;;;;;;8.80;5.78;;;;;;;18.27;94.76;95304.25;5007688;28;20222;-81
2023/08/26 04:11:30;;;;;;;16.13;6.30;;;;;;;18.21;94.88;95302.47;5006339;28;20210;-81
2023/08/26 04:14:44;;;;;;;10.93;6.60;;;;;;;18.04;95.64;95304.66;4943690;29;20220;-82
2023/08/26 04:17:29;;;;;;;11.30;6.45;;;;;;;18.13;94.63;95307.91;4930893;29;20196;-81
2023/08/26 04:20:26;;;;;;;;;;;;;;;;;;;;;
2023/08/26 04:26:40;;;;;;;9.75;6.53;;;;;;;18.23;94.61;95294.38;4950062;28;20645;-80
2023/08/26 04:29:29;;;;;;;9.48;6.40;;;;;;;18.19;95.14;95290.50;4936322;29;20279;-81
2023/08/26 04:32:20;;;;;;;9.82;6.00;;;;;;;18.11;95.56;95299.41;4937053;29;20645;-83
2023/08/26 04:35:10;;;;;;;11.60;6.93;;;;;;;18.17;95.90;95298.59;4922833;29;20619;-82
2023/08/26 04:38:04;;;;;;;9.45;7.53;;;;;;;18.18;96.10;95299.41;4932095;29;20225;-81
2023/08/26 04:40:50;;;;;;;9.02;6.65;;;;;;;18.17;95.39;95310.94;4915816;29;20234;-82
2023/08/26 04:43:47;;;;;;;9.52;6.57;;;;;;;18.11;95.81;95307.28;4914692;28;20202;-82
2023/08/26 04:46:17;;;;;;;9.43;7.25;;;;;;;18.05;96.62;95315.97;4937943;28;20288;-83
2023/08/26 04:48:45;;;;;;;9.20;6.88;;;;;;;18.02;96.59;95318.97;4963905;28;20204;-82
2023/08/26 04:51:43;;;;;;;11.02;7.22;;;;;;;18.05;96.34;95315.97;4940264;28;20628;-81
2023/08/26 04:58:00;;;;;;;;;;;;;;;;;;;;;
2023/08/26 05:03:42;;;;;;;9.23;6.85;;;;;;;18.13;96.06;95334.19;5026117;28;20664;-82
2023/08/26 05:06:45;;;;;;;11.57;7.50;;;;;;;18.10;95.55;95331.94;5011172;28;20245;-81
2023/08/26 05:09:24;;;;;;;8.70;6.57;;;;;;;18.05;96.50;95343.06;5006847;28;20727;-81
2023/08/26 05:15:30;;;;;;;11.73;7.07;;;;;;;18.23;95.44;95334.59;5025886;28;20187;-81
2023/08/26 05:18:22;;;;;;;9.82;7.18;;;;;;;18.11;94.62;95323.06;5012339;28;20210;-81
2023/08/26 05:21:20;;;;;;;7.57;5.95;;;;;;;18.10;94.51;95343.25;5012827;28;20812;-82
2023/08/26 05:23:57;;;;;;;9.20;7.25;;;;;;;18.30;93.57;95332.78;5010029;28;20191;-82
2023/08/26 05:26:36;;;;;;;9.52;7.00;;;;;;;18.43;92.35;95339.06;5013031;28;20222;-82
2023/08/26 05:29:07;;;;;;;9.75;6.40;;;;;;;18.57;91.30;95338.06;5027211;28;20246;-80
2023/08/26 05:31:45;;;;;;;9.48;5.88;;;;;;;18.80;90.97;95345.56;5010206;28;20241;-81
2023/08/26 05:34:15;;;;;;;10.57;6.43;;;;;;;18.70;89.91;95353.88;5011737;28;20198;-81
2023/08/26 05:36:49;;;;;;;8.25;6.05;;;;;;;18.69;89.71;95349.63;5012432;28;20631;-81
2023/08/26 05:39:44;;;;;;;10.50;6.55;;;;;;;18.67;89.65;95349.03;4982578;28;20329;-81
2023/08/26 05:42:56;;;;;;;7.50;5.78;;;;;;;18.69;89.74;95354.88;5013373;28;20191;-82
2023/08/26 05:45:32;;;;;;;9.40;6.00;;;;;;;18.68;90.83;95356.72;5011596;28;20214;-82
2023/08/26 05:48:31;;;;;;;9.77;6.00;;;;;;;18.67;89.43;95351.66;5008414;28;20237;-82
2023/08/26 05:51:19;;;;;;;7.30;6.07;;;;;;;18.96;88.32;95361.75;5012023;28;20270;-81
2023/08/26 05:54:19;;;;;;;13.13;6.70;;;;;;;19.10;87.62;95353.84;5008614;28;20203;-81
2023/08/26 05:57:40;;;;;;;8.48;5.32;;;;;;;19.41;86.31;95356.59;5014404;28;20194;-82
2023/08/26 06:00:37;;;;;;;9.63;5.70;;;;;;;19.45;85.58;95352.56;5014805;28;20195;-81
2023/08/26 06:03:18;;;;;;;9.70;6.00;;;;;;;19.37;86.05;95360.69;4990232;28;20200;-81
2023/08/26 06:06:06;;;;;;;9.25;5.90;;;;;;;19.58;83.58;95372.00;5013272;28;20180;-81
2023/08/26 06:08:39;;;;;;;9.27;5.80;;;;;;;19.93;82.91;95383.00;5010555;28;20700;-80
2023/08/26 06:11:09;;;;;;;10.45;6.03;;;;;;;19.77;82.65;95385.09;5012910;28;20207;-81
2023/08/26 06:13:35;;;;;;;10.70;5.47;;;;;;;19.90;82.89;95389.50;4999422;28;20191;-80
2023/08/26 06:16:03;;;;;;;7.97;5.05;;;;;;;20.00;81.72;95381.16;5015302;28;20273;-80
2023/08/26 06:18:31;;;;;;;6.40;5.80;;;;;;;19.88;81.60;95369.63;5000221;28;20562;-81
2023/08/26 06:21:06;;;;;;;9.50;4.93;;;;;;;20.03;82.32;95378.91;5028818;28;20191;-81
2023/08/26 06:23:44;;;;;;;8.43;5.78;;;;;;;19.82;82.75;95381.03;5014690;28;20178;-83
2023/08/26 06:26:17;;;;;;;9.82;6.72;;;;;;;20.04;82.67;95372.59;4998878;28;20198;-83
2023/08/26 06:28:57;;;;;;;11.88;6.93;;;;;;;19.95;83.55;95381.78;5015347;28;20231;-82
2023/08/26 06:31:32;;;;;;;7.20;5.32;;;;;;;20.09;82.46;95380.69;5002390;28;20313;-81
2023/08/26 06:34:00;;;;;;;11.20;5.70;;;;;;;19.86;83.39;95383.03;5033807;28;20198;-82
2023/08/26 06:36:40;;;;;;;10.93;6.38;;;;;;;19.70;84.71;95372.94;5000665;28;20207;-81
2023/08/26 06:39:13;;;;;;;8.23;6.07;;;;;;;19.58;85.02;95377.25;5016719;28;20603;-82
2023/08/26 06:41:46;;;;;;;9.98;5.75;;;;;;;19.70;85.17;95375.59;5034101;28;20214;-81
2023/08/26 06:44:14;;;;;;;6.65;5.03;;;;;;;19.86;84.54;95372.47;5015053;28;20200;-83
2023/08/26 06:46:45;;;;;;;7.72;5.53;;;;;;;19.87;84.77;95374.09;5031098;28;20214;-83
2023/08/26 06:49:18;;;;;;;7.35;5.68;;;;;;;19.90;84.22;95372.91;5017429;28;20238;-82
2023/08/26 06:55:20;;;;;;;9.15;5.90;;;;;;;20.34;82.02;95369.41;4946652;28;20216;-81
2023/08/26 06:57:59;;;;;;;10.48;5.47;;;;;;;20.62;81.51;95369.06;4955276;28;20223;-81
2023/08/26 07:00:33;;;;;;;10.10;5.93;;;;;;;20.87;80.19;95385.72;4942260;28;20201;-81
2023/08/26 07:03:01;;;;;;;7.30;5.43;;;;;;;20.98;79.38;95384.19;4959550;28;20204;-82
2023/08/26 07:05:26;;;;;;;10.63;6.00;;;;;;;20.58;80.40;95388.94;4955219;28;20197;-82
2023/08/26 07:07:51;;;;;;;6.22;4.72;;;;;;;20.56;80.99;95378.63;4964277;28;20252;-82
2023/08/26 07:10:19;;;;;;;8.75;5.28;;;;;;;20.31;80.15;95388.28;4969621;28;20201;-82
2023/08/26 07:12:45;;;;;;;8.10;5.10;;;;;;;20.62;78.99;95377.78;4971729;28;20291;-82
2023/08/26 07:15:10;;;;;;;9.15;4.93;;;;;;;20.90;76.51;95373.91;4971369;28;20246;-81
2023/08/26 07:17:35;;;;;;;8.70;5.18;;;;;;;21.32;74.65;95387.38;4968588;28;20204;-81
2023/08/26 07:20:01;;;;;;;8.00;4.80;;;;;;;21.17;73.91;95391.13;4967037;28;20921;-81
2023/08/26 07:22:26;;;;;;;7.03;4.20;;;;;;;21.10;74.74;95382.44;4948187;28;20289;-81
2023/08/26 07:24:52;;;;;;;10.30;4.93;;;;;;;21.31;73.82;95367.28;4962150;28;20617;-79
2023/08/26 07:27:18;;;;;;;5.28;4.18;;;;;;;21.66;70.74;95370.97;4953264;28;20758;-84
2023/08/26 07:29:43;;;;;;;7.07;4.10;;;;;;;21.83;70.05;95365.09;4937589;28;20192;-79
2023/08/26 07:32:08;;;;;;;6.40;4.15;;;;;;;22.06;69.08;95358.06;4982006;28;20199;-79
2023/08/26 07:34:34;;;;;;;8.57;4.05;;;;;;;22.31;69.26;95365.88;5011929;28;20187;-79
2023/08/26 07:36:59;;;;;;;7.18;3.15;;;;;;;22.35;63.74;95366.22;5011561;28;20183;-82
2023/08/26 07:39:24;;;;;;;5.65;2.83;;;;;;;22.19;63.80;95362.41;5008373;28;20196;-81
2023/08/26 07:41:50;;;;;;;9.38;3.15;;;;;;;22.11;62.70;95368.00;5009677;28;20183;-79
2023/08/26 07:44:16;;;;;;;4.38;3.08;;;;;;;21.79;62.37;95370.00;5011492;28;20183;-81
2023/08/26 07:46:41;;;;;;;5.32;3.00;;;;;;;21.74;63.97;95368.03;4994558;28;20194;-82
2023/08/26 07:49:06;;;;;;;5.75;3.22;;;;;;;21.53;65.54;95363.16;5011492;28;20207;-80
2023/08/26 07:51:31;;;;;;;6.82;3.15;;;;;;;21.47;67.24;95375.44;4994948;28;20202;-82
2023/08/26 07:53:57;;;;;;;7.40;3.00;;;;;;;21.42;66.41;95383.19;4995160;28;20837;-81
2023/08/26 07:56:22;;;;;;;3.08;2.58;;;;;;;21.47;66.05;95379.91;5010602;28;20215;-81
2023/08/26 07:58:49;;;;;;;6.60;2.88;;;;;;;21.51;65.54;95375.78;5011199;28;20195;-83
2023/08/26 08:01:14;;;;;;;6.65;3.00;;;;;;;21.61;65.63;95364.72;5011106;28;20233;-80
2023/08/26 08:03:39;;;;;;;5.60;2.92;;;;;;;21.87;66.71;95368.88;4994606;28;20191;-81
2023/08/26 08:06:04;;;;;;;7.03;3.42;;;;;;;21.60;64.96;95363.91;5010485;28;20953;-80
2023/08/26 08:08:30;;;;;;;4.65;3.28;;;;;;;21.82;65.10;95363.44;5010812;28;20250;-79
2023/08/26 08:10:55;;;;;;;3.83;3.15;;;;;;;21.68;63.96;95358.34;5010976;28;20730;-81
2023/08/26 08:13:20;;;;;;;5.07;3.15;;;;;;;21.81;62.56;95364.47;5010971;28;20191;-80
2023/08/26 08:15:46;;;;;;;6.00;3.22;;;;;;;21.78;62.82;95371.81;5009848;28;20218;-82
2023/08/26 08:18:11;;;;;;;4.07;2.97;;;;;;;22.12;62.64;95366.97;5010526;28;20242;-82
2023/08/26 08:20:36;;;;;;;7.10;3.83;;;;;;;21.97;59.11;95359.38;5007137;28;20246;-80
2023/08/26 08:23:03;;;;;;;6.97;3.80;;;;;;;22.25;59.87;95361.50;5020004;28;20704;-79
2023/08/26 08:25:29;;;;;;;6.50;2.90;;;;;;;22.50;60.20;95364.00;5005213;28;20195;-82
2023/08/26 08:27:54;;;;;;;3.42;2.63;;;;;;;22.17;58.11;95363.63;4995222;28;20234;-82
2023/08/26 08:30:25;;;;;;;6.72;2.65;;;;;;;22.32;55.85;95359.56;4995955;28;20183;-83
2023/08/26 08:32:53;;;;;;;5.25;2.80;;;;;;;22.29;57.21;95367.97;4995816;28;20188;-82
2023/08/26 08:35:18;;;;;;;4.97;2.55;;;;;;;22.61;56.48;95371.13;5009439;28;20560;-81
2023/08/26 08:37:43;;;;;;;4.53;2.28;;;;;;;22.64;55.51;95372.56;5007264;28;20195;-80
2023/08/26 08:40:13;;;;;;;7.90;2.78;;;;;;;22.07;57.87;95361.53;4993686;28;20202;-79
2023/08/26 08:42:40;;;;;;;4.03;2.72;;;;;;;22.33;56.81;95361.16;5010392;28;20533;-80
2023/08/26 08:45:06;;;;;;;4.25;2.42;;;;;;;22.27;56.35;95369.22;4993092;28;20183;-78
2023/08/26 08:47:33;;;;;;;3.35;2.25;;;;;;;22.14;57.61;95367.53;5026466;28;20767;-79
2023/08/26 08:49:58;;;;;;;4.95;2.40;;;;;;;22.14;56.93;95366.75;5010130;28;20197;-81
2023/08/26 08:52:25;;;;;;;5.88;2.35;;;;;;;22.31;55.69;95376.47;5010347;28;20269;-80
2023/08/26 08:54:51;;;;;;;3.17;2.55;;;;;;;22.04;54.05;95380.47;5009709;28;20203;-80
2023/08/26 09:04:46;;;;;;;6.55;2.40;;;;;;;22.57;52.29;95398.28;4997096;28;20218;-82
2023/08/26 09:07:35;;;;;;;4.97;2.15;;;;;;;22.25;54.11;95392.41;4977656;28;20212;-80
2023/08/26 09:09:59;;;;;;;3.70;2.47;;;;;;;22.49;54.83;95385.38;4990331;28;20577;-77
2023/08/26 09:12:25;;;;;;;5.57;2.50;;;;;;;22.41;54.69;95375.13;4991427;28;20184;-78
2023/08/26 09:14:51;;;;;;;3.55;2.22;;;;;;;22.74;54.43;95370.16;4991057;28;20192;-77
2023/08/26 09:17:18;;;;;;;5.65;2.05;;;;;;;23.00;53.63;95368.16;4974205;28;20608;-77
2023/08/26 09:19:53;;;;;;;4.82;2.75;;;;;;;22.76;53.13;95368.06;4989844;28;20275;-77
2023/08/26 09:22:20;;;;;;;2.90;1.98;;;;;;;23.06;53.60;95362.75;4991093;28;20661;-77
2023/08/26 09:24:45;;;;;;;5.32;2.50;;;;;;;22.64;52.58;95361.97;4990896;28;20237;-78
2023/08/26 09:27:10;;;;;;;4.55;2.58;;;;;;;23.39;51.70;95367.44;4977073;28;20204;-78
2023/08/26 09:29:38;;;;;;;5.45;2.50;;;;;;;23.37;50.92;95364.22;4991638;28;20212;-77
2023/08/26 09:32:03;;;;;;;3.97;2.55;;;;;;;23.16;52.47;95372.75;4979056;28;20180;-78
2023/08/26 09:34:30;;;;;;;3.20;2.40;;;;;;;23.16;53.11;95378.88;4990448;28;20190;-79
2023/08/26 09:36:56;;;;;;;3.38;2.45;;;;;;;22.41;52.50;95377.75;4988530;28;20183;-79
2023/08/26 09:39:21;;;;;;;5.00;2.28;;;;;;;22.62;52.32;95377.28;4990307;28;20232;-78
2023/08/26 09:41:47;;;;;;;4.40;2.75;;;;;;;22.97;52.33;95369.41;4977610;28;20665;-79
2023/08/26 09:44:15;;;;;;;4.13;2.20;;;;;;;23.37;52.65;95361.56;4990642;28;20188;-80
2023/08/26 09:46:40;;;;;;;8.40;2.47;;;;;;;23.32;52.53;95356.19;4974233;28;20191;-79
2023/08/26 09:49:06;;;;;;;3.47;2.50;;;;;;;23.48;52.29;95369.75;4991279;28;20199;-79
2023/08/26 09:51:32;;;;;;;4.25;2.00;;;;;;;23.04;52.18;95362.16;4978665;28;20191;-79
2023/08/26 09:53:58;;;;;;;3.85;2.42;;;;;;;23.27;51.84;95361.34;4961744;28;20283;-79
2023/08/26 09:56:25;;;;;;;6.35;2.60;;;;;;;22.91;51.13;95358.94;4979360;28;20678;-78
2023/08/26 09:58:51;;;;;;;3.53;2.60;;;;;;;22.58;52.23;95344.34;4974640;28;20212;-79
2023/08/26 10:01:21;;;;;;;2.75;1.92;;;;;;;23.16;50.55;95340.97;4974671;28;20665;-78
2023/08/26 10:04:10;;;;;;;4.72;2.20;;;;;;;23.08;50.29;95333.38;4974264;28;20207;-79
2023/08/26 10:06:40;;;;;;;6.65;2.40;;;;;;;22.97;52.44;95332.34;4991325;28;20199;-79
2023/08/26 10:09:34;;;;;;;9.52;2.72;;;;;;;23.76;51.04;95339.88;4990343;28;20212;-78
2023/08/26 10:12:04;;;;;;;6.15;2.20;;;;;;;24.02;49.84;95341.97;5004020;28;20188;-79
2023/08/26 10:14:31;;;;;;;6.55;2.90;;;;;;;23.78;50.04;95343.09;4992333;28;20183;-79
2023/08/26 10:17:00;;;;;;;5.10;2.60;;;;;;;23.65;50.75;95341.50;4981380;28;20188;-79
2023/08/26 10:19:26;;;;;;;5.50;2.55;;;;;;;23.63;51.04;95344.41;4990845;28;20262;-79
2023/08/26 10:21:52;;;;;;;5.88;3.00;;;;;;;22.53;53.83;95339.75;4963414;28;20626;-79
2023/08/26 10:24:17;;;;;;;3.20;2.50;;;;;;;23.38;51.21;95344.63;4958240;28;20271;-79
2023/08/26 10:26:43;;;;;;;2.75;2.17;;;;;;;23.22;51.76;95358.56;4973976;28;20608;-79
2023/08/26 10:29:09;;;;;;;6.55;2.40;;;;;;;22.39;54.10;95358.66;4991915;28;20200;-78
2023/08/26 10:31:36;;;;;;;7.15;2.50;;;;;;;22.95;52.96;95368.00;4990593;28;20650;-79
2023/08/26 10:34:01;;;;;;;3.45;2.30;;;;;;;22.64;53.87;95361.97;4973672;28;20184;-79
2023/08/26 10:36:27;;;;;;;2.97;2.22;;;;;;;22.73;52.91;95357.94;4989878;28;20613;-78
2023/08/26 10:38:57;;;;;;;5.13;2.28;;;;;;;22.60;53.18;95355.50;4991529;28;20227;-79
2023/08/26 10:41:22;;;;;;;5.65;2.38;;;;;;;22.61;52.42;95354.47;4978021;28;20184;-78
2023/08/26 10:44:01;;;;;;;3.78;2.55;;;;;;;22.49;52.78;95354.44;4993941;28;20720;-78
2023/08/26 10:46:56;;;;;;;4.32;2.10;;;;;;;21.74;54.19;95348.72;4977675;28;20469;-79
2023/08/26 10:49:28;;;;;;;5.15;2.30;;;;;;;21.28;56.77;95349.22;4982990;28;20265;-78
2023/08/26 10:52:16;;;;;;;5.10;2.70;;;;;;;21.42;55.51;95335.66;4977556;28;20283;-78
2023/08/26 10:54:43;;;;;;;5.82;2.45;;;;;;;21.16;57.06;95344.63;4985100;28;20593;-78
2023/08/26 10:57:09;;;;;;;4.65;2.45;;;;;;;21.63;56.59;95352.88;4984138;28;20193;-79
2023/08/26 10:59:35;;;;;;;2.80;2.40;;;;;;;21.69;54.99;95357.28;4994611;28;20199;-79
2023/08/26 11:02:02;;;;;;;5.10;2.40;;;;;;;21.04;56.81;95359.59;4993620;28;20195;-79
2023/08/26 11:04:27;;;;;;;2.88;2.10;;;;;;;21.27;57.44;95353.69;4990837;28;20188;-79
2023/08/26 11:06:53;;;;;;;3.40;2.47;;;;;;;21.66;55.19;95351.66;4975188;28;20214;-78
2023/08/26 11:09:19;;;;;;;4.60;2.35;;;;;;;21.83;54.66;95351.88;4990484;28;20200;-79
2023/08/26 11:11:44;;;;;;;4.70;2.47;;;;;;;21.56;54.40;95346.09;4992067;28;20189;-79
2023/08/26 11:14:09;;;;;;;6.35;2.47;;;;;;;21.72;55.70;95343.63;4976890;28;20184;-79
2023/08/26 11:16:34;;;;;;;3.70;2.33;;;;;;;21.70;55.09;95343.06;4970447;28;20191;-78
2023/08/26 11:19:00;;;;;;;5.40;2.78;;;;;;;21.76;55.53;95344.81;4971788;28;20686;-79
2023/08/26 11:21:26;;;;;;;7.00;2.15;;;;;;;21.91;56.04;95347.09;4993127;28;20299;-79
2023/08/26 11:23:54;;;;;;;3.78;2.40;;;;;;;21.50;56.67;95353.06;4977137;28;20209;-78
2023/08/26 11:26:20;;;;;;;3.88;2.03;;;;;;;21.31;58.72;95352.25;4992563;28;20175;-78
2023/08/26 11:28:48;;;;;;;7.43;2.03;;;;;;;21.33;58.63;95352.00;4973824;28;20235;-78
2023/08/26 11:31:13;;;;;;;3.05;1.88;;;;;;;21.29;57.35;95366.66;4970525;28;20247;-79
2023/08/26 11:33:38;;;;;;;3.97;2.25;;;;;;;20.99;57.09;95355.97;4990418;28;20655;-79
2023/08/26 11:36:04;;;;;;;2.30;1.83;;;;;;;20.97;56.94;95364.09;4976181;28;20241;-79
2023/08/26 11:38:34;;;;;;;5.10;2.45;;;;;;;20.76;57.89;95364.47;4989692;28;20251;-78
2023/08/26 11:41:02;;;;;;;3.10;1.90;;;;;;;20.66;57.20;95357.03;4992559;28;20188;-78
2023/08/26 11:43:28;;;;;;;2.90;1.80;;;;;;;20.58;57.01;95365.22;4991965;28;20188;-79
2023/08/26 11:45:54;;;;;;;3.00;1.70;;;;;;;20.41;57.77;95370.19;4991228;28;20691;-79
2023/08/26 11:48:20;;;;;;;7.97;2.30;;;;;;;20.38;58.04;95379.31;4979359;28;20274;-81
2023/08/26 11:50:46;;;;;;;5.20;1.88;;;;;;;20.21;58.81;95375.56;4962909;28;20665;-80
2023/08/26 11:53:11;;;;;;;4.35;2.88;;;;;;;20.03;59.62;95378.91;4975343;28;20617;-80
2023/08/26 11:55:38;;;;;;;5.53;2.40;;;;;;;19.91;59.58;95377.16;4990114;28;20196;-79
2023/08/26 11:58:04;;;;;;;4.93;2.13;;;;;;;19.86;60.69;95383.03;4971956;28;20212;-78
2023/08/26 12:00:31;;;;;;;2.78;1.90;;;;;;;19.83;61.04;95378.19;4974181;28;20187;-78
2023/08/26 12:03:02;;;;;;;2.90;2.00;;;;;;;19.61;62.63;95387.38;4991257;28;20200;-78
2023/08/26 12:05:28;;;;;;;3.92;2.10;;;;;;;19.35;62.87;95385.59;4993050;28;20207;-78
2023/08/26 12:07:55;;;;;;;5.28;1.95;;;;;;;19.53;63.32;95389.22;4971252;28;20218;-79
2023/08/26 12:10:20;;;;;;;3.55;2.00;;;;;;;19.42;63.69;95387.19;4990484;28;20193;-79
2023/08/26 12:12:47;;;;;;;3.78;2.05;;;;;;;19.42;66.29;95402.19;4991766;28;20184;-79